createdAt,value
2022-10-02T00:01:50.238Z,16.76
2022-10-02T00:04:26.960Z,16.76
2022-10-02T00:07:06.141Z,16.78
2022-10-02T00:09:44.262Z,16.78
2022-10-02T00:12:19.638Z,16.79
2022-10-02T00:15:03.341Z,16.81
2022-10-02T00:17:42.675Z,16.82
2022-10-02T00:20:25.215Z,16.84
2022-10-02T00:23:06.199Z,16.87
2022-10-02T00:25:45.891Z,16.86
2022-10-02T00:28:28.649Z,16.88
2022-10-02T00:31:29.033Z,16.89
2022-10-02T00:34:21.659Z,16.89
2022-10-02T00:37:04.966Z,16.91
2022-10-02T00:39:52.376Z,16.93
2022-10-02T00:42:50.476Z,16.94
2022-10-02T00:45:41.014Z,16.95
2022-10-02T00:48:28.990Z,16.96
2022-10-02T00:51:15.215Z,16.97
2022-10-02T00:53:57.842Z,16.96
2022-10-02T00:56:38.794Z,16.96
2022-10-02T00:59:31.517Z,16.96
2022-10-02T01:02:10.465Z,16.95
2022-10-02T01:04:44.703Z,16.95
2022-10-02T01:07:17.484Z,16.92
2022-10-02T01:09:50.623Z,16.94
2022-10-02T01:12:24.159Z,16.94
2022-10-02T01:14:57.045Z,16.92
2022-10-02T01:17:34.291Z,16.94
2022-10-02T01:20:17.744Z,16.94
2022-10-02T01:22:55.767Z,16.95
2022-10-02T01:25:30.273Z,16.96
2022-10-02T01:28:03.420Z,16.97
2022-10-02T01:30:38.318Z,16.97
2022-10-02T01:33:13.744Z,17.01
2022-10-02T01:35:47.370Z,17.03
2022-10-02T01:38:24.724Z,17.08
2022-10-02T01:41:01.100Z,17.14
2022-10-02T01:43:36.787Z,17.17
2022-10-02T01:46:26.224Z,17.22
2022-10-02T01:49:12.762Z,17.26
2022-10-02T01:52:14.343Z,17.30
2022-10-02T01:54:59.038Z,17.34
2022-10-02T01:57:43.391Z,17.35
2022-10-02T02:00:18.529Z,17.37
2022-10-02T02:02:59.408Z,17.38
2022-10-02T02:05:47.232Z,17.39
2022-10-02T02:08:29.887Z,17.39
2022-10-02T02:11:12.717Z,17.43
2022-10-02T02:13:51.160Z,17.44
2022-10-02T02:16:31.561Z,17.47
2022-10-02T02:19:09.309Z,17.48
2022-10-02T02:21:46.685Z,17.52
2022-10-02T02:24:25.952Z,17.52
2022-10-02T02:27:01.786Z,17.53
2022-10-02T02:29:39.890Z,17.54
2022-10-02T02:32:19.059Z,17.57
2022-10-02T02:34:58.313Z,17.58
2022-10-02T02:37:35.213Z,17.58
2022-10-02T02:40:13.997Z,17.60
2022-10-02T02:42:56.144Z,17.63
2022-10-02T02:45:35.071Z,17.64
2022-10-02T02:48:12.740Z,17.64
2022-10-02T02:50:51.577Z,17.64
2022-10-02T02:53:27.645Z,17.64
2022-10-02T02:56:03.116Z,17.66
2022-10-02T02:58:42.887Z,17.68
2022-10-02T03:01:17.174Z,17.70
2022-10-02T03:03:50.132Z,17.71
2022-10-02T03:06:31.679Z,17.77
2022-10-02T03:09:07.309Z,17.78
2022-10-02T03:11:53.012Z,17.82
2022-10-02T03:14:54.159Z,17.84
2022-10-02T03:17:41.484Z,17.85
2022-10-02T03:20:22.158Z,17.87
2022-10-02T03:23:04.373Z,17.90
2022-10-02T03:25:43.244Z,17.93
2022-10-02T03:28:37.384Z,17.96
2022-10-02T03:31:16.193Z,17.97
2022-10-02T03:33:53.772Z,18.00
2022-10-02T03:36:27.205Z,18.01
2022-10-02T03:41:57.392Z,18.06
2022-10-02T03:44:30.247Z,18.08
2022-10-02T03:47:03.018Z,18.08
2022-10-02T03:49:37.260Z,18.11
2022-10-02T03:52:16.416Z,18.15
2022-10-02T03:54:54.298Z,18.14
2022-10-02T03:57:27.757Z,18.14
2022-10-02T04:00:05.360Z,18.16
2022-10-02T04:02:43.611Z,18.17
2022-10-02T04:05:23.921Z,18.19
2022-10-02T04:08:01.712Z,18.16
2022-10-02T04:10:44.989Z,18.18
2022-10-02T04:13:23.581Z,18.18
2022-10-02T04:16:05.279Z,18.20
2022-10-02T04:18:43.351Z,18.21
2022-10-02T04:21:28.969Z,18.22
2022-10-02T04:24:11.045Z,18.21
2022-10-02T04:26:50.860Z,18.23
2022-10-02T04:29:27.256Z,18.23
2022-10-02T04:32:08.590Z,18.24
2022-10-02T04:34:42.176Z,18.23
2022-10-02T04:37:40.458Z,18.26
2022-10-02T04:40:34.985Z,18.27
2022-10-02T04:43:21.973Z,18.27
2022-10-02T04:46:17.616Z,18.29
2022-10-02T04:49:23.994Z,18.28
2022-10-02T04:52:10.195Z,18.29
2022-10-02T04:55:10.773Z,18.32
2022-10-02T04:58:00.096Z,18.31
2022-10-02T05:00:37.565Z,18.29
2022-10-02T05:03:33.165Z,18.32
2022-10-02T05:06:21.639Z,18.29
2022-10-02T05:09:17.422Z,18.28
2022-10-02T05:12:28.085Z,18.28
2022-10-02T05:15:27.905Z,18.27
2022-10-02T05:18:26.819Z,18.26
2022-10-02T05:21:18.774Z,18.25
2022-10-02T05:23:59.367Z,18.23
2022-10-02T05:26:55.666Z,18.29
2022-10-02T05:29:53.119Z,18.27
2022-10-02T05:32:49.662Z,18.27
2022-10-02T05:35:36.308Z,18.26
2022-10-02T05:38:22.671Z,18.27
2022-10-02T05:41:02.222Z,18.28
2022-10-02T05:43:43.508Z,18.30
2022-10-02T05:46:24.453Z,18.30
2022-10-02T05:49:00.220Z,18.33
2022-10-02T05:51:38.656Z,18.35
2022-10-02T05:54:22.369Z,18.37
2022-10-02T05:57:02.618Z,18.39
2022-10-02T05:59:42.359Z,18.40
2022-10-02T06:02:23.390Z,18.42
2022-10-02T06:05:04.513Z,18.42
2022-10-02T06:07:37.875Z,18.43
2022-10-02T06:10:16.096Z,18.45
2022-10-02T06:12:55.243Z,18.44
2022-10-02T06:15:34.738Z,18.47
2022-10-02T06:18:14.543Z,18.48
2022-10-02T06:20:53.013Z,18.51
2022-10-02T06:23:29.326Z,18.52
2022-10-02T06:26:07.901Z,18.55
2022-10-02T06:28:44.319Z,18.58
2022-10-02T06:31:22.885Z,18.63
2022-10-02T06:33:58.204Z,18.66
2022-10-02T06:36:48.547Z,18.70
2022-10-02T06:39:56.634Z,18.76
2022-10-02T06:42:40.840Z,18.83
2022-10-02T06:45:23.772Z,18.89
2022-10-02T06:48:05.578Z,18.95
2022-10-02T06:50:43.149Z,18.99
2022-10-02T06:53:47.044Z,19.12
2022-10-02T06:56:45.812Z,19.19
2022-10-02T06:59:33.036Z,19.28
2022-10-02T07:02:18.146Z,19.41
2022-10-02T07:05:04.288Z,19.48
2022-10-02T07:07:51.918Z,19.56
2022-10-02T07:10:35.743Z,19.65
2022-10-02T07:13:39.059Z,19.72
2022-10-02T07:16:32.647Z,19.79
2022-10-02T07:19:36.391Z,19.86
2022-10-02T07:22:43.829Z,19.87
2022-10-02T07:25:50.969Z,19.93
2022-10-02T07:28:32.116Z,19.99
2022-10-02T07:31:18.827Z,20.04
2022-10-02T07:34:13.169Z,20.10
2022-10-02T07:36:55.496Z,20.18
2022-10-02T07:39:40.809Z,20.28
2022-10-02T07:42:29.758Z,20.40
2022-10-02T07:45:23.306Z,20.51
2022-10-02T07:48:20.301Z,20.62
2022-10-02T07:51:03.143Z,20.71
2022-10-02T07:53:41.295Z,20.80
2022-10-02T07:56:20.186Z,20.89
2022-10-02T07:59:00.951Z,21.02
2022-10-02T08:01:38.099Z,21.12
2022-10-02T08:04:15.639Z,21.26
2022-10-02T08:06:50.026Z,21.37
2022-10-02T08:09:27.356Z,21.52
2022-10-02T08:12:04.592Z,21.65
2022-10-02T08:14:41.919Z,21.76
2022-10-02T08:17:27.925Z,21.90
2022-10-02T08:20:06.691Z,22.00
2022-10-02T08:22:45.075Z,22.10
2022-10-02T08:25:24.387Z,22.20
2022-10-02T08:28:01.342Z,22.30
2022-10-02T08:30:37.232Z,22.38
2022-10-02T08:33:17.589Z,22.48
2022-10-02T08:36:09.815Z,22.55
2022-10-02T08:38:49.445Z,22.60
2022-10-02T08:42:04.421Z,22.65
2022-10-02T08:45:08.032Z,22.68
2022-10-02T08:48:22.821Z,22.68
2022-10-02T08:51:31.177Z,22.68
2022-10-02T08:54:50.546Z,22.64
2022-10-02T08:57:46.067Z,22.64
2022-10-02T09:00:23.941Z,22.60
2022-10-02T09:03:30.044Z,22.57
2022-10-02T09:06:33.874Z,22.55
2022-10-02T09:09:57.391Z,22.50
2022-10-02T09:13:03.582Z,22.49
2022-10-02T09:15:48.457Z,22.47
2022-10-02T09:18:42.022Z,22.46
2022-10-02T09:21:20.086Z,22.49
2022-10-02T09:24:31.406Z,22.53
2022-10-02T09:27:30.144Z,22.59
2022-10-02T09:30:22.303Z,22.68
2022-10-02T09:33:31.273Z,22.77
2022-10-02T09:36:29.217Z,22.87
2022-10-02T09:39:32.233Z,22.97
2022-10-02T09:42:46.880Z,23.03
2022-10-02T09:45:53.102Z,23.11
2022-10-02T09:49:08.969Z,23.20
2022-10-02T09:52:20.728Z,23.28
2022-10-02T09:55:20.180Z,23.36
2022-10-02T09:58:33.323Z,23.43
2022-10-02T10:01:36.616Z,23.45
2022-10-02T10:05:07.187Z,23.44
2022-10-02T10:08:31.722Z,23.39
2022-10-02T10:11:39.867Z,23.30
2022-10-02T10:15:00.644Z,23.14
2022-10-02T10:18:11.012Z,22.98
2022-10-02T10:21:06.700Z,22.78
2022-10-02T10:24:19.175Z,22.57
2022-10-02T10:27:29.384Z,22.35
2022-10-02T10:30:33.201Z,22.11
2022-10-02T10:33:41.370Z,21.88
2022-10-02T10:36:49.065Z,21.72
2022-10-02T10:39:52.415Z,21.55
2022-10-02T10:43:18.964Z,21.45
2022-10-02T10:46:15.868Z,21.39
2022-10-02T10:49:31.919Z,21.35
2022-10-02T10:52:16.231Z,21.36
2022-10-02T10:55:05.968Z,21.41
2022-10-02T10:57:55.366Z,21.47
2022-10-02T11:00:39.092Z,21.53
2022-10-02T11:03:53.629Z,21.62
2022-10-02T11:07:08.353Z,21.71
2022-10-02T11:10:16.802Z,21.82
2022-10-02T11:13:03.221Z,21.91
2022-10-02T11:16:20.736Z,22.04
2022-10-02T11:19:11.213Z,22.17
2022-10-02T11:22:12.731Z,22.27
2022-10-02T11:25:19.720Z,22.35
2022-10-02T11:28:15.465Z,22.43
2022-10-02T11:30:55.600Z,22.46
2022-10-02T11:33:44.610Z,22.50
2022-10-02T11:36:45.972Z,22.55
2022-10-02T11:39:44.352Z,22.59
2022-10-02T11:42:43.625Z,22.66
2022-10-02T11:45:37.186Z,22.73
2022-10-02T11:48:33.209Z,22.81
2022-10-02T11:51:41.970Z,22.90
2022-10-02T11:54:46.841Z,23.05
2022-10-02T11:57:32.248Z,23.19
2022-10-02T12:00:16.146Z,23.35
2022-10-02T12:02:57.490Z,23.48
2022-10-02T12:05:53.489Z,23.59
2022-10-02T12:08:35.160Z,23.65
2022-10-02T12:11:14.182Z,23.68
2022-10-02T12:14:01.231Z,23.76
2022-10-02T12:16:48.851Z,23.82
2022-10-02T12:20:01.668Z,23.89
2022-10-02T12:23:02.013Z,23.97
2022-10-02T12:25:59.305Z,24.06
2022-10-02T12:28:43.941Z,24.18
2022-10-02T12:31:22.395Z,24.28
2022-10-02T12:34:01.845Z,24.37
2022-10-02T12:36:48.187Z,24.46
2022-10-02T12:39:36.902Z,24.53
2022-10-02T12:42:32.758Z,24.58
2022-10-02T12:45:49.448Z,24.62
2022-10-02T12:48:46.898Z,24.65
2022-10-02T12:51:46.696Z,24.65
2022-10-02T12:54:57.006Z,24.64
2022-10-02T12:58:04.115Z,24.61
2022-10-02T13:01:04.339Z,24.58
2022-10-02T13:04:06.826Z,24.54
2022-10-02T13:07:31.253Z,24.51
2022-10-02T13:10:17.774Z,24.48
2022-10-02T13:13:07.382Z,24.46
2022-10-02T13:15:54.781Z,24.46
2022-10-02T13:19:00.742Z,24.47
2022-10-02T13:21:47.374Z,24.54
2022-10-02T13:24:38.541Z,24.59
2022-10-02T13:27:31.355Z,24.66
2022-10-02T13:30:15.602Z,24.69
2022-10-02T13:33:08.462Z,24.75
2022-10-02T13:36:06.028Z,24.76
2022-10-02T13:39:04.760Z,24.80
2022-10-02T13:41:50.904Z,24.82
2022-10-02T13:44:35.723Z,24.82
2022-10-02T13:47:25.086Z,24.80
2022-10-02T13:50:17.406Z,24.76
2022-10-02T13:53:23.031Z,24.72
2022-10-02T13:56:09.135Z,24.69
2022-10-02T13:59:06.113Z,24.69
2022-10-02T14:01:55.107Z,24.72
2022-10-02T14:04:46.305Z,24.76
2022-10-02T14:07:56.422Z,24.81
2022-10-02T14:10:46.755Z,24.89
2022-10-02T14:13:32.503Z,24.96
2022-10-02T14:16:25.854Z,25.02
2022-10-02T14:19:25.006Z,25.09
2022-10-02T14:22:12.642Z,25.17
2022-10-02T14:25:04.221Z,25.19
2022-10-02T14:28:06.710Z,25.17
2022-10-02T14:30:55.147Z,25.13
2022-10-02T14:33:45.033Z,25.09
2022-10-02T14:36:26.536Z,25.04
2022-10-02T14:39:22.252Z,24.99
2022-10-02T14:42:10.340Z,24.91
2022-10-02T14:45:21.977Z,24.82
2022-10-02T14:48:13.652Z,24.72
2022-10-02T14:50:56.805Z,24.64
2022-10-02T14:53:49.517Z,24.60
2022-10-02T14:56:47.186Z,24.52
2022-10-02T14:59:48.784Z,24.40
2022-10-02T15:02:55.400Z,24.29
2022-10-02T15:05:52.729Z,24.21
2022-10-02T15:08:35.286Z,24.14
2022-10-02T15:11:22.775Z,24.12
2022-10-02T15:14:01.499Z,24.09
2022-10-02T15:17:06.938Z,24.09
2022-10-02T15:19:50.682Z,24.07
2022-10-02T15:22:33.508Z,24.04
2022-10-02T15:25:18.113Z,23.98
2022-10-02T15:28:34.523Z,23.93
2022-10-02T15:31:07.726Z,23.87
2022-10-02T15:33:46.606Z,23.81
2022-10-02T15:36:46.950Z,23.74
2022-10-02T15:39:39.385Z,23.66
2022-10-02T15:42:17.019Z,23.57
2022-10-02T15:45:20.609Z,23.47
2022-10-02T15:48:08.245Z,23.41
2022-10-02T15:50:51.975Z,23.33
2022-10-02T15:53:38.695Z,23.25
2022-10-02T15:56:43.932Z,23.13
2022-10-02T15:59:37.391Z,23.01
2022-10-02T16:02:27.678Z,22.91
2022-10-02T16:05:15.670Z,22.81
2022-10-02T16:08:08.483Z,22.67
2022-10-02T16:11:02.838Z,22.57
2022-10-02T16:13:47.533Z,22.45
2022-10-02T16:16:35.558Z,22.33
2022-10-02T16:19:20.838Z,22.24
2022-10-02T16:22:08.219Z,22.10
2022-10-02T16:24:55.687Z,21.99
2022-10-02T16:27:52.406Z,21.87
2022-10-02T16:30:26.748Z,21.75
2022-10-02T16:33:10.329Z,21.69
2022-10-02T16:36:08.700Z,21.64
2022-10-02T16:38:50.490Z,21.59
2022-10-02T16:41:41.353Z,21.55
2022-10-02T16:44:45.017Z,21.51
2022-10-02T16:47:28.673Z,21.49
2022-10-02T16:50:14.791Z,21.47
2022-10-02T16:52:54.119Z,21.44
2022-10-02T16:55:33.774Z,21.39
2022-10-02T16:58:21.810Z,21.39
2022-10-02T17:00:59.443Z,21.36
2022-10-02T17:03:36.451Z,21.32
2022-10-02T17:06:16.891Z,21.29
2022-10-02T17:08:56.122Z,21.24
2022-10-02T17:11:35.790Z,21.19
2022-10-02T17:14:15.180Z,21.13
2022-10-02T17:17:01.900Z,21.09
2022-10-02T17:19:45.978Z,21.05
2022-10-02T17:22:28.855Z,20.99
2022-10-02T17:25:08.169Z,20.94
2022-10-02T17:27:49.691Z,20.90
2022-10-02T17:30:27.053Z,20.85
2022-10-02T17:33:16.180Z,20.80
2022-10-02T17:35:57.503Z,20.74
2022-10-02T17:39:03.567Z,20.66
2022-10-02T17:41:50.962Z,20.60
2022-10-02T17:44:45.001Z,20.53
2022-10-02T17:47:33.735Z,20.47
2022-10-02T17:50:20.736Z,20.43
2022-10-02T17:53:37.127Z,20.41
2022-10-02T17:56:30.575Z,20.39
2022-10-02T17:59:32.183Z,20.37
2022-10-02T18:02:13.599Z,20.36
2022-10-02T18:05:03.221Z,20.33
2022-10-02T18:08:00.512Z,20.30
2022-10-02T18:10:41.782Z,20.28
2022-10-02T18:13:28.999Z,20.24
2022-10-02T18:16:18.850Z,20.20
2022-10-02T18:19:18.305Z,20.16
2022-10-02T18:22:01.437Z,20.11
2022-10-02T18:24:49.305Z,20.05
2022-10-02T18:27:49.020Z,20.01
2022-10-02T18:30:23.081Z,19.93
2022-10-02T18:33:34.207Z,19.90
2022-10-02T18:36:22.687Z,19.86
2022-10-02T18:39:00.651Z,19.80
2022-10-02T18:41:56.640Z,19.75
2022-10-02T18:44:55.361Z,19.71
2022-10-02T18:47:42.971Z,19.65
2022-10-02T18:50:36.069Z,19.59
2022-10-02T18:53:30.708Z,19.53
2022-10-02T18:56:07.599Z,19.47
2022-10-02T18:58:58.017Z,19.41
2022-10-02T19:01:53.986Z,19.34
2022-10-02T19:04:53.465Z,19.27
2022-10-02T19:07:30.685Z,19.19
2022-10-02T19:10:26.421Z,19.15
2022-10-02T19:13:04.987Z,19.08
2022-10-02T19:15:39.336Z,19.04
2022-10-02T19:18:19.093Z,19.04
2022-10-02T19:20:59.869Z,19.01
2022-10-02T19:23:36.729Z,19.01
2022-10-02T19:26:19.082Z,19.03
2022-10-02T19:28:55.157Z,19.01
2022-10-02T19:31:31.593Z,19.01
2022-10-02T19:34:12.539Z,19.03
2022-10-02T19:36:50.641Z,19.01
2022-10-02T19:39:27.687Z,19.00
2022-10-02T19:42:03.377Z,18.99
2022-10-02T19:44:42.046Z,18.98
2022-10-02T19:47:20.613Z,18.98
2022-10-02T19:49:59.028Z,18.95
2022-10-02T19:52:36.974Z,18.97
2022-10-02T19:55:24.173Z,19.00
2022-10-02T19:58:01.609Z,19.00
2022-10-02T20:00:38.707Z,19.02
2022-10-02T20:03:21.414Z,19.04
2022-10-02T20:05:58.423Z,19.06
2022-10-02T20:08:36.455Z,19.08
2022-10-02T20:11:15.983Z,19.12
2022-10-02T20:13:52.842Z,19.14
2022-10-02T20:16:44.783Z,19.16
2022-10-02T20:19:22.350Z,19.18
2022-10-02T20:21:57.058Z,19.18
2022-10-02T20:24:38.111Z,19.20
2022-10-02T20:27:17.461Z,19.21
2022-10-02T20:29:56.639Z,19.20
2022-10-02T20:32:39.047Z,19.22
2022-10-02T20:35:21.513Z,19.19
2022-10-02T20:38:04.624Z,19.16
2022-10-02T20:40:42.185Z,19.10
2022-10-02T20:43:21.264Z,19.08
2022-10-02T20:46:23.075Z,19.04
2022-10-02T20:49:09.931Z,18.96
2022-10-02T20:52:27.504Z,18.92
2022-10-02T20:55:07.971Z,18.82
2022-10-02T20:58:12.511Z,18.76
2022-10-02T21:00:59.889Z,18.69
2022-10-02T21:03:50.636Z,18.64
2022-10-02T21:06:47.907Z,18.57
2022-10-02T21:09:59.808Z,18.51
2022-10-02T21:13:24.895Z,18.45
2022-10-02T21:16:27.036Z,18.41
2022-10-02T21:19:33.244Z,18.38
2022-10-02T21:22:48.206Z,18.34
2022-10-02T21:25:54.865Z,18.30
2022-10-02T21:28:58.208Z,18.27
2022-10-02T21:32:00.106Z,18.26
2022-10-02T21:34:50.449Z,18.26
2022-10-02T21:37:29.434Z,18.24
2022-10-02T21:40:30.571Z,18.24
2022-10-02T21:43:33.611Z,18.22
2022-10-02T21:46:41.414Z,18.22
2022-10-02T21:50:05.028Z,18.23
2022-10-02T21:53:25.130Z,18.22
2022-10-02T22:00:15.919Z,18.23
2022-10-02T22:03:14.936Z,18.24
2022-10-02T22:06:29.424Z,18.26
2022-10-02T22:09:19.762Z,18.26
2022-10-02T22:12:05.286Z,18.28
2022-10-02T22:14:41.552Z,18.29
2022-10-02T22:17:27.203Z,18.30
2022-10-02T22:23:40.329Z,18.30
2022-10-02T22:26:30.126Z,18.26
2022-10-02T22:29:12.291Z,18.22
2022-10-02T22:32:22.595Z,18.16
2022-10-02T22:35:10.295Z,18.06
2022-10-02T22:38:05.461Z,17.95
2022-10-02T22:40:48.597Z,17.82
2022-10-02T22:43:30.218Z,17.65
2022-10-02T22:46:08.193Z,17.48
2022-10-02T22:48:48.425Z,17.34
2022-10-02T22:51:28.644Z,17.20
2022-10-02T22:54:07.143Z,17.12
2022-10-02T22:56:45.706Z,17.02
2022-10-02T22:59:25.639Z,16.96
2022-10-02T23:02:05.491Z,16.90
2022-10-02T23:05:11.247Z,16.86
2022-10-02T23:07:50.761Z,16.80
2022-10-02T23:10:30.549Z,16.77
2022-10-02T23:13:07.520Z,16.71
2022-10-02T23:15:53.501Z,16.67
2022-10-02T23:18:36.040Z,16.66
2022-10-02T23:21:24.361Z,16.64
2022-10-02T23:24:06.938Z,16.65
2022-10-02T23:26:48.215Z,16.65
2022-10-02T23:29:29.509Z,16.70
2022-10-02T23:32:08.063Z,16.69
2022-10-02T23:34:44.963Z,16.73
2022-10-02T23:37:24.009Z,16.77
2022-10-02T23:40:11.142Z,16.82
2022-10-02T23:42:50.415Z,16.83
2022-10-02T23:45:28.641Z,16.86
2022-10-02T23:48:05.994Z,16.89
2022-10-02T23:50:51.639Z,16.93
2022-10-02T23:53:51.958Z,16.94
2022-10-02T23:56:44.546Z,16.94
2022-10-02T23:59:37.238Z,16.94
